Time;durP1;ratioP1;P1;durP2;ratioP2;P2;SDS_P1;SDS_P2;PMS_P1;PMS_P2;Temp;Humidity;BMP_temperature;BMP_pressure;BME280_temperature;BME280_humidity;BME280_pressure;Samples;Min_cycle;Max_cycle;Signal;HPM_P1;HPM_P2
2022/07/27 00:01:17;;;;;;;6.40;1.40;;;15.10;99.90;;;;;;5047220;28;20061;-60
2022/07/27 00:03:44;;;;;;;1.55;0.77;;;15.10;99.90;;;;;;5047057;28;20045;-60
2022/07/27 00:06:10;;;;;;;4.35;1.15;;;15.10;99.90;;;;;;5045746;28;20033;-60
2022/07/27 00:08:36;;;;;;;1.92;0.80;;;15.20;99.90;;;;;;5047219;28;20400;-60
2022/07/27 00:11:02;;;;;;;4.57;1.10;;;15.20;99.90;;;;;;5046304;28;20048;-60
2022/07/27 00:13:28;;;;;;;3.78;1.13;;;15.30;99.90;;;;;;5047464;28;20049;-60
2022/07/27 00:15:54;;;;;;;6.60;1.48;;;15.20;99.90;;;;;;5046683;28;20033;-60
2022/07/27 00:18:20;;;;;;;3.45;1.02;;;15.20;99.90;;;;;;5046179;28;20087;-60
2022/07/27 00:20:45;;;;;;;5.15;1.00;;;15.10;99.90;;;;;;5046821;28;20037;-60
2022/07/27 00:23:11;;;;;;;1.77;1.02;;;15.10;99.90;;;;;;5046843;28;20037;-60
2022/07/27 00:25:36;;;;;;;5.07;0.93;;;15.10;99.90;;;;;;5046341;28;20053;-60
2022/07/27 00:28:02;;;;;;;2.30;1.08;;;15.00;99.90;;;;;;5046535;28;20045;-60
2022/07/27 00:30:28;;;;;;;4.03;1.13;;;15.00;99.90;;;;;;5047226;28;20396;-60
2022/07/27 00:32:55;;;;;;;5.07;1.63;;;14.90;99.90;;;;;;5045853;28;20047;-60
2022/07/27 00:35:21;;;;;;;2.40;1.00;;;14.90;99.90;;;;;;5046622;28;20040;-60
2022/07/27 00:37:47;;;;;;;1.70;1.00;;;14.80;99.90;;;;;;5046592;28;20044;-60
2022/07/27 00:40:13;;;;;;;1.10;0.70;;;14.80;99.90;;;;;;5046014;28;20136;-60
2022/07/27 00:42:38;;;;;;;3.15;1.25;;;14.70;99.90;;;;;;5046756;28;20396;-60
2022/07/27 00:45:04;;;;;;;4.45;1.13;;;14.70;99.90;;;;;;5046273;28;20052;-60
2022/07/27 00:47:31;;;;;;;5.45;1.42;;;14.60;99.90;;;;;;5045980;28;20131;-60
2022/07/27 00:49:57;;;;;;;5.65;1.33;;;14.70;99.90;;;;;;5046582;28;20084;-60
2022/07/27 00:52:23;;;;;;;2.92;1.02;;;14.60;99.90;;;;;;5046401;28;20045;-60
2022/07/27 00:54:49;;;;;;;3.13;1.20;;;14.60;99.90;;;;;;5045747;28;20151;-60
2022/07/27 00:57:16;;;;;;;3.22;0.93;;;14.60;99.90;;;;;;5046255;28;20040;-59
2022/07/27 00:59:41;;;;;;;3.00;0.95;;;14.60;99.90;;;;;;5046669;28;20156;-60
2022/07/27 01:02:08;;;;;;;4.40;1.33;;;14.50;99.90;;;;;;5045356;28;20573;-59
2022/07/27 01:04:34;;;;;;;3.47;1.02;;;14.70;99.90;;;;;;5046184;28;20466;-59
2022/07/27 01:07:02;;;;;;;5.97;1.30;;;14.60;99.90;;;;;;5046452;28;20057;-60
2022/07/27 01:12:16;;;;;;;3.20;0.85;;;14.70;99.90;;;;;;5046465;28;20057;-60
2022/07/27 01:14:42;;;;;;;12.13;1.08;;;14.70;99.90;;;;;;5045471;28;20574;-60
2022/07/27 01:17:08;;;;;;;3.05;0.80;;;14.80;99.90;;;;;;5045905;28;20484;-60
2022/07/27 01:19:34;;;;;;;3.80;0.70;;;14.80;99.90;;;;;;5046398;28;20041;-60
2022/07/27 01:22:01;;;;;;;3.38;1.00;;;14.80;99.90;;;;;;5045506;28;20048;-60
2022/07/27 01:24:27;;;;;;;7.18;1.42;;;14.80;99.90;;;;;;5046591;28;20464;-60
2022/07/27 01:26:52;;;;;;;4.10;1.60;;;14.60;99.90;;;;;;5045838;28;20087;-60
2022/07/27 01:29:18;;;;;;;2.92;0.52;;;14.70;99.90;;;;;;5045408;28;20044;-60
2022/07/27 01:31:44;;;;;;;5.10;1.02;;;14.70;99.90;;;;;;5046023;28;20124;-60
2022/07/27 01:34:09;;;;;;;3.25;1.25;;;14.70;99.90;;;;;;5045918;28;20187;-60
2022/07/27 01:36:35;;;;;;;5.32;1.20;;;14.60;99.90;;;;;;5045538;28;20436;-59
2022/07/27 01:39:01;;;;;;;3.83;1.13;;;14.70;99.90;;;;;;5045721;28;20037;-60
2022/07/27 01:41:26;;;;;;;2.15;1.45;;;14.60;99.90;;;;;;5046427;28;20044;-60
2022/07/27 01:43:52;;;;;;;2.20;0.90;;;14.50;99.90;;;;;;5045285;28;20389;-60
2022/07/27 01:46:17;;;;;;;6.68;1.35;;;14.50;99.90;;;;;;5047548;28;20064;-60
2022/07/27 01:48:43;;;;;;;5.28;1.30;;;14.50;99.90;;;;;;5049835;28;20079;-60
2022/07/27 01:51:09;;;;;;;5.47;1.60;;;14.40;99.90;;;;;;5048766;28;20069;-60
2022/07/27 01:53:34;;;;;;;2.72;0.93;;;14.40;99.90;;;;;;5049595;28;20092;-59
2022/07/27 01:56:00;;;;;;;4.97;1.58;;;14.40;99.90;;;;;;5049398;28;20532;-60
2022/07/27 01:58:25;;;;;;;9.93;1.45;;;14.30;99.90;;;;;;5048979;28;20053;-60
2022/07/27 02:00:51;;;;;;;3.17;1.17;;;14.40;99.90;;;;;;5049177;28;20110;-60
2022/07/27 02:03:17;;;;;;;5.32;1.25;;;14.30;99.90;;;;;;5049536;28;20049;-60
2022/07/27 02:05:42;;;;;;;3.78;1.05;;;14.30;99.90;;;;;;5047259;28;20079;-60
2022/07/27 02:08:08;;;;;;;3.20;1.48;;;14.30;99.90;;;;;;5048992;28;20045;-59
2022/07/27 02:10:35;;;;;;;3.60;1.70;;;14.30;99.90;;;;;;5048775;28;20056;-59
2022/07/27 02:13:01;;;;;;;10.38;1.60;;;14.30;99.90;;;;;;5048823;28;20056;-60
2022/07/27 02:15:28;;;;;;;4.28;1.40;;;14.30;99.90;;;;;;5049575;28;20037;-60
2022/07/27 02:17:55;;;;;;;4.85;1.30;;;14.30;99.90;;;;;;5048427;28;20152;-60
2022/07/27 02:20:24;;;;;;;2.35;1.20;;;14.30;99.90;;;;;;5049343;28;20048;-60
2022/07/27 02:22:50;;;;;;;4.32;1.58;;;14.20;99.90;;;;;;5048690;28;20123;-60
2022/07/27 02:25:18;;;;;;;5.53;1.20;;;14.30;99.90;;;;;;5048183;28;20490;-59
2022/07/27 02:27:44;;;;;;;4.55;1.33;;;14.40;99.90;;;;;;5048887;28;20388;-60
2022/07/27 02:30:12;;;;;;;2.47;1.65;;;14.30;99.90;;;;;;5048450;28;20056;-59
2022/07/27 02:32:39;;;;;;;2.80;1.20;;;14.30;99.90;;;;;;5048504;28;20060;-60
2022/07/27 02:35:06;;;;;;;5.65;1.67;;;14.30;99.90;;;;;;5048906;28;20045;-59
2022/07/27 02:37:31;;;;;;;5.53;1.40;;;14.30;99.90;;;;;;5048780;28;20114;-59
2022/07/27 02:39:57;;;;;;;5.88;1.52;;;14.30;99.90;;;;;;5048317;28;20037;-60
2022/07/27 02:42:23;;;;;;;3.03;1.13;;;14.30;99.90;;;;;;5048616;28;20134;-59
2022/07/27 02:44:48;;;;;;;3.47;1.27;;;14.30;99.90;;;;;;5048293;28;20059;-60
2022/07/27 02:47:14;;;;;;;2.22;1.38;;;14.40;99.90;;;;;;5048005;28;20084;-60
2022/07/27 02:49:39;;;;;;;3.35;1.20;;;14.30;99.90;;;;;;5048726;28;20041;-60
2022/07/27 02:52:05;;;;;;;6.95;1.65;;;14.30;99.90;;;;;;5048155;28;20049;-59
2022/07/27 02:54:31;;;;;;;5.05;1.73;;;14.40;99.90;;;;;;5048163;28;20540;-60
2022/07/27 02:56:59;;;;;;;4.65;1.13;;;14.30;99.90;;;;;;5048378;28;20037;-59
2022/07/27 02:59:25;;;;;;;4.97;1.15;;;14.30;99.90;;;;;;5048882;28;20055;-59
2022/07/27 03:01:50;;;;;;;6.65;1.55;;;14.40;99.90;;;;;;5047737;28;20431;-59
2022/07/27 03:04:17;;;;;;;4.38;1.60;;;14.40;99.90;;;;;;5048304;28;20043;-60
2022/07/27 03:06:43;;;;;;;3.63;1.65;;;14.30;99.90;;;;;;5048463;28;20131;-60
2022/07/27 03:09:09;;;;;;;5.43;1.80;;;14.30;99.90;;;;;;5047204;28;20377;-59
2022/07/27 03:11:35;;;;;;;6.70;1.65;;;14.30;99.90;;;;;;5048431;28;20073;-59
2022/07/27 03:14:01;;;;;;;3.25;1.38;;;14.30;99.90;;;;;;5047497;28;20082;-59
2022/07/27 03:16:26;;;;;;;7.78;1.85;;;14.20;99.90;;;;;;5048634;28;20515;-60
2022/07/27 03:18:52;;;;;;;6.53;1.65;;;14.30;99.90;;;;;;5047982;28;20053;-59
2022/07/27 03:21:18;;;;;;;4.05;1.15;;;14.20;99.90;;;;;;5047320;28;20188;-59
2022/07/27 03:23:44;;;;;;;1.65;1.20;;;14.20;99.90;;;;;;5047995;28;20044;-59
2022/07/27 03:26:09;;;;;;;2.78;1.58;;;14.20;99.90;;;;;;5047707;28;20055;-60
2022/07/27 03:28:35;;;;;;;6.43;1.80;;;14.20;99.90;;;;;;5047058;28;20415;-60
2022/07/27 03:31:02;;;;;;;8.52;1.58;;;14.20;99.90;;;;;;5047824;28;20583;-60
2022/07/27 03:33:28;;;;;;;2.30;1.27;;;14.20;99.90;;;;;;5048415;28;20052;-60
2022/07/27 03:35:54;;;;;;;5.53;1.70;;;14.20;99.90;;;;;;5046878;28;20071;-60
2022/07/27 03:38:21;;;;;;;5.25;1.52;;;14.20;99.90;;;;;;5046318;28;20251;-59
2022/07/27 03:40:47;;;;;;;2.60;1.63;;;14.20;99.90;;;;;;5047290;28;20053;-60
2022/07/27 03:43:13;;;;;;;3.22;1.55;;;14.20;99.90;;;;;;5046974;28;20041;-60
2022/07/27 03:45:39;;;;;;;3.42;1.80;;;14.20;99.90;;;;;;5047623;28;20120;-59
2022/07/27 03:48:05;;;;;;;5.65;1.67;;;14.20;99.90;;;;;;5047133;28;20516;-59
2022/07/27 03:50:30;;;;;;;2.33;1.65;;;14.10;99.90;;;;;;5046908;28;20491;-59
2022/07/27 03:52:56;;;;;;;4.30;1.60;;;14.20;99.90;;;;;;5047801;28;20045;-60
2022/07/27 03:55:22;;;;;;;3.83;1.73;;;14.20;99.90;;;;;;5047275;28;20126;-59
2022/07/27 03:57:47;;;;;;;1.98;1.15;;;14.10;99.90;;;;;;5046533;28;20044;-59
2022/07/27 04:00:14;;;;;;;5.03;1.63;;;14.10;99.90;;;;;;5047356;28;20056;-60
2022/07/27 04:02:40;;;;;;;5.25;1.70;;;14.10;99.90;;;;;;5047344;28;20037;-59
2022/07/27 04:05:07;;;;;;;4.65;1.73;;;14.10;99.90;;;;;;5046320;28;20048;-59
2022/07/27 04:07:33;;;;;;;6.28;1.65;;;14.10;99.90;;;;;;5046887;28;20167;-60
2022/07/27 04:09:58;;;;;;;4.05;1.58;;;14.10;99.90;;;;;;5046883;28;20494;-60
2022/07/27 04:12:24;;;;;;;8.10;1.98;;;14.10;99.90;;;;;;5046600;28;20565;-60
2022/07/27 04:14:49;;;;;;;6.20;1.85;;;14.00;99.90;;;;;;5046898;28;20052;-60
2022/07/27 04:17:15;;;;;;;5.03;2.28;;;14.00;99.90;;;;;;5046439;28;20045;-60
2022/07/27 04:19:41;;;;;;;4.07;1.85;;;14.00;99.90;;;;;;5047068;28;20396;-59
2022/07/27 04:22:06;;;;;;;4.88;1.50;;;14.00;99.90;;;;;;5046730;28;20037;-60
2022/07/27 04:24:32;;;;;;;3.58;1.40;;;14.00;99.90;;;;;;5046167;28;20057;-60
2022/07/27 04:26:58;;;;;;;6.03;2.33;;;14.00;99.90;;;;;;5047059;28;20033;-60
2022/07/27 04:29:23;;;;;;;6.70;2.28;;;14.00;99.90;;;;;;5046900;28;20048;-60
2022/07/27 04:31:49;;;;;;;5.03;1.98;;;14.10;99.90;;;;;;5045928;28;20079;-60
2022/07/27 04:34:15;;;;;;;2.53;1.67;;;13.90;99.90;;;;;;5046799;28;20467;-60
2022/07/27 04:36:40;;;;;;;2.97;1.73;;;14.00;99.90;;;;;;5047022;28;20037;-60
2022/07/27 04:39:07;;;;;;;5.28;1.45;;;14.00;99.90;;;;;;5045799;28;20511;-60
2022/07/27 04:41:32;;;;;;;5.28;1.55;;;14.00;99.90;;;;;;5046913;28;20076;-60
2022/07/27 04:43:58;;;;;;;5.20;1.50;;;14.00;99.90;;;;;;5047102;28;20329;-60
2022/07/27 04:46:24;;;;;;;4.03;1.55;;;14.10;99.90;;;;;;5044429;28;20048;-60
2022/07/27 04:48:49;;;;;;;3.53;1.58;;;14.20;99.90;;;;;;5046317;28;20085;-60
2022/07/27 04:51:16;;;;;;;4.53;1.52;;;14.10;99.90;;;;;;5046486;28;20068;-60
2022/07/27 04:53:42;;;;;;;4.65;1.40;;;14.20;99.90;;;;;;5045743;28;20048;-60
2022/07/27 04:56:08;;;;;;;7.13;1.83;;;14.10;99.90;;;;;;5046142;28;20206;-60
2022/07/27 04:58:35;;;;;;;3.65;1.17;;;14.10;99.90;;;;;;5046206;28;20064;-60
2022/07/27 05:01:00;;;;;;;5.78;1.17;;;14.10;99.90;;;;;;5045551;28;20048;-60
2022/07/27 05:03:26;;;;;;;4.90;1.50;;;14.20;99.90;;;;;;5045626;28;20053;-59
2022/07/27 05:05:52;;;;;;;3.20;1.10;;;14.30;99.90;;;;;;5046122;28;20041;-59
2022/07/27 05:08:18;;;;;;;3.47;1.50;;;14.20;99.90;;;;;;5045629;28;20492;-60
2022/07/27 05:10:44;;;;;;;7.28;1.92;;;14.30;99.90;;;;;;5046375;28;20401;-60
2022/07/27 05:13:10;;;;;;;6.28;1.48;;;14.30;99.90;;;;;;5045758;28;20519;-60
2022/07/27 05:15:36;;;;;;;4.70;1.70;;;14.30;99.90;;;;;;5045728;28;20053;-60
2022/07/27 05:18:02;;;;;;;4.20;1.33;;;14.30;99.90;;;;;;5045893;28;20064;-60
2022/07/27 05:20:28;;;;;;;3.60;1.15;;;14.30;99.90;;;;;;5046195;28;20041;-60
2022/07/27 05:22:53;;;;;;;7.38;1.60;;;14.30;99.90;;;;;;5050429;28;20396;-59
2022/07/27 05:25:20;;;;;;;5.60;1.60;;;14.50;99.90;;;;;;5050298;28;20033;-59
2022/07/27 05:27:46;;;;;;;6.95;1.85;;;14.40;99.90;;;;;;5049350;28;20174;-59
2022/07/27 05:30:12;;;;;;;3.38;1.52;;;14.30;99.90;;;;;;5048605;28;20080;-60
2022/07/27 05:32:38;;;;;;;4.15;1.10;;;14.40;99.90;;;;;;5049849;28;20406;-59
2022/07/27 05:35:04;;;;;;;5.18;1.52;;;14.40;99.90;;;;;;5048929;28;20033;-60
2022/07/27 05:37:30;;;;;;;5.97;1.73;;;14.40;99.90;;;;;;5049744;28;20120;-60
2022/07/27 05:39:55;;;;;;;7.35;1.52;;;14.50;99.90;;;;;;5050147;28;20075;-60
2022/07/27 05:42:21;;;;;;;6.45;1.52;;;14.70;99.90;;;;;;5048931;28;20130;-60
2022/07/27 05:44:47;;;;;;;3.35;0.95;;;14.50;99.90;;;;;;5049380;28;20049;-60
2022/07/27 05:47:12;;;;;;;8.25;2.25;;;14.50;99.90;;;;;;5049574;28;20084;-60
2022/07/27 05:49:38;;;;;;;2.67;1.13;;;14.50;99.90;;;;;;5048981;28;20044;-59
2022/07/27 05:52:04;;;;;;;6.45;2.13;;;14.60;99.90;;;;;;5049151;28;20133;-60
2022/07/27 05:54:29;;;;;;;4.43;1.52;;;14.60;99.90;;;;;;5049756;28;20036;-60
2022/07/27 05:56:55;;;;;;;7.18;2.38;;;14.60;99.90;;;;;;5064583;28;20084;-60
2022/07/27 05:59:21;;;;;;;5.53;1.95;;;14.70;99.90;;;;;;5049359;28;20045;-59
2022/07/27 06:01:46;;;;;;;3.88;1.50;;;14.70;99.90;;;;;;5049425;28;20052;-60
2022/07/27 06:04:12;;;;;;;5.35;1.33;;;14.80;99.90;;;;;;5048575;28;20049;-59
2022/07/27 06:09:21;;;;;;;7.10;1.70;;;14.90;99.90;;;;;;5049380;28;20500;-60
2022/07/27 06:11:47;;;;;;;3.75;1.58;;;14.90;99.90;;;;;;5048504;28;20052;-60
2022/07/27 06:14:13;;;;;;;4.70;1.83;;;15.00;99.90;;;;;;5049255;28;20102;-60
2022/07/27 06:16:38;;;;;;;4.60;1.52;;;15.10;99.90;;;;;;5049047;28;20039;-60
2022/07/27 06:19:04;;;;;;;6.45;1.40;;;15.20;99.90;;;;;;5048099;28;20037;-60
2022/07/27 06:21:30;;;;;;;2.72;1.35;;;15.30;99.90;;;;;;5049418;28;20157;-60
2022/07/27 06:23:56;;;;;;;6.63;2.05;;;15.30;99.90;;;;;;5048865;28;20033;-60
2022/07/27 06:26:22;;;;;;;2.30;1.20;;;15.40;99.90;;;;;;5048810;28;20045;-60
2022/07/27 06:28:48;;;;;;;2.63;1.42;;;15.50;99.90;;;;;;5048919;28;20049;-60
2022/07/27 06:31:14;;;;;;;4.80;1.35;;;15.60;99.90;;;;;;5047796;28;20041;-60
2022/07/27 06:33:40;;;;;;;7.55;1.70;;;15.70;99.90;;;;;;5048843;28;20080;-60
2022/07/27 06:36:07;;;;;;;3.72;0.95;;;15.70;99.90;;;;;;5048714;28;20048;-60
2022/07/27 06:38:33;;;;;;;10.85;1.75;;;15.70;99.90;;;;;;5048392;28;20092;-60
2022/07/27 06:41:00;;;;;;;2.67;1.10;;;15.70;99.90;;;;;;5049056;28;20661;-60
2022/07/27 06:43:29;;;;;;;4.03;1.30;;;15.70;99.90;;;;;;5049155;28;20090;-60
2022/07/27 06:45:57;;;;;;;5.53;1.35;;;15.70;99.90;;;;;;5048154;28;20467;-60
2022/07/27 06:48:22;;;;;;;3.30;1.20;;;15.70;99.90;;;;;;5048536;28;20063;-60
2022/07/27 06:50:49;;;;;;;5.68;1.40;;;15.80;99.90;;;;;;5048262;28;20045;-60
2022/07/27 06:53:15;;;;;;;11.38;1.42;;;15.80;99.90;;;;;;5047816;28;20511;-59
2022/07/27 06:55:41;;;;;;;7.95;1.25;;;15.80;99.90;;;;;;5048564;28;20044;-60
2022/07/27 06:58:06;;;;;;;7.35;1.98;;;15.90;99.90;;;;;;5048051;28;20772;-60
2022/07/27 07:00:33;;;;;;;3.08;1.33;;;16.00;99.90;;;;;;5047706;28;20059;-60
2022/07/27 07:03:03;;;;;;;4.20;1.40;;;16.00;99.90;;;;;;5048577;28;20044;-60
2022/07/27 07:05:31;;;;;;;4.53;1.15;;;16.00;99.90;;;;;;5049082;28;20408;-60
2022/07/27 07:07:57;;;;;;;4.07;1.20;;;16.10;99.90;;;;;;5047706;28;20480;-60
2022/07/27 07:10:24;;;;;;;5.88;1.42;;;16.10;99.90;;;;;;5048321;28;20131;-60
2022/07/27 07:12:54;;;;;;;6.18;1.38;;;16.20;99.90;;;;;;5047731;28;20041;-60
2022/07/27 07:15:22;;;;;;;9.55;1.80;;;16.30;99.90;;;;;;5047598;28;20116;-60
2022/07/27 07:17:48;;;;;;;7.70;1.08;;;16.30;99.90;;;;;;5048121;28;20045;-60
2022/07/27 07:20:15;;;;;;;3.33;1.00;;;16.30;99.90;;;;;;5047198;28;20044;-60
2022/07/27 07:22:41;;;;;;;3.42;1.15;;;16.30;99.90;;;;;;5047971;28;20416;-60
2022/07/27 07:25:07;;;;;;;5.40;1.30;;;16.30;99.90;;;;;;5047526;28;20045;-60
2022/07/27 07:27:33;;;;;;;6.35;1.42;;;16.20;99.90;;;;;;5047117;28;20110;-60
2022/07/27 07:29:59;;;;;;;4.75;1.13;;;16.20;99.90;;;;;;5048073;28;20484;-60
2022/07/27 07:32:25;;;;;;;2.67;1.00;;;16.10;99.90;;;;;;5030236;28;20095;-60
2022/07/27 07:34:51;;;;;;;4.75;1.55;;;16.00;99.90;;;;;;5046890;28;20049;-60
2022/07/27 07:37:19;;;;;;;2.90;0.93;;;15.90;99.90;;;;;;5047772;28;20667;-60
2022/07/27 07:39:47;;;;;;;3.38;1.40;;;15.80;99.90;;;;;;5047797;28;20044;-60
2022/07/27 07:42:13;;;;;;;6.55;1.42;;;15.70;99.90;;;;;;5046804;28;20092;-59
2022/07/27 07:44:39;;;;;;;4.05;1.35;;;15.60;99.90;;;;;;5046621;28;20063;-60
2022/07/27 07:47:04;;;;;;;7.78;1.67;;;15.60;99.90;;;;;;5047146;28;20110;-59
2022/07/27 07:49:30;;;;;;;2.00;1.10;;;15.40;99.90;;;;;;5047358;28;20483;-60
2022/07/27 07:51:56;;;;;;;9.57;1.33;;;15.40;99.90;;;;;;5047763;28;20047;-59
2022/07/27 07:54:21;;;;;;;4.65;1.38;;;15.30;99.90;;;;;;5047496;28;20503;-59
2022/07/27 07:56:47;;;;;;;4.47;1.50;;;15.30;99.90;;;;;;5046672;28;20110;-59
2022/07/27 07:59:13;;;;;;;7.93;1.90;;;15.40;99.90;;;;;;5046906;28;20060;-59
2022/07/27 08:01:39;;;;;;;4.93;0.95;;;15.40;99.90;;;;;;5047512;28;20049;-58
2022/07/27 08:04:04;;;;;;;2.95;1.48;;;15.40;99.90;;;;;;5046389;28;20446;-59
2022/07/27 08:06:30;;;;;;;3.95;1.15;;;15.50;99.90;;;;;;5046975;28;20384;-60
2022/07/27 08:08:57;;;;;;;3.97;1.23;;;15.60;99.90;;;;;;5047457;28;20045;-60
2022/07/27 08:11:23;;;;;;;1.70;0.60;;;15.60;99.90;;;;;;5046197;28;20083;-60
2022/07/27 08:13:48;;;;;;;6.00;0.90;;;15.70;99.90;;;;;;5046717;28;20496;-60
2022/07/27 08:16:15;;;;;;;3.45;1.10;;;15.70;99.90;;;;;;5046961;28;20049;-60
2022/07/27 08:18:41;;;;;;;2.70;0.82;;;15.80;99.90;;;;;;5046648;28;20041;-60
2022/07/27 08:21:07;;;;;;;2.88;1.00;;;15.90;99.90;;;;;;5046825;28;20072;-60
2022/07/27 08:23:33;;;;;;;3.10;0.95;;;16.00;99.90;;;;;;5046074;28;20071;-60
2022/07/27 08:25:59;;;;;;;3.55;0.90;;;16.10;99.90;;;;;;5047068;28;20545;-60
2022/07/27 08:28:25;;;;;;;3.05;0.98;;;16.20;99.90;;;;;;5046812;28;20068;-59
2022/07/27 08:30:50;;;;;;;2.00;0.90;;;16.20;99.90;;;;;;5045784;28;20094;-60
2022/07/27 08:33:16;;;;;;;2.05;0.70;;;16.40;99.90;;;;;;5046855;28;20041;-60
2022/07/27 08:35:43;;;;;;;4.38;0.73;;;16.40;99.90;;;;;;5046789;28;20045;-60
2022/07/27 08:38:09;;;;;;;3.92;0.80;;;16.40;99.90;;;;;;5045748;28;20051;-60
2022/07/27 08:40:36;;;;;;;5.32;1.00;;;16.50;99.90;;;;;;5046499;28;20037;-60
2022/07/27 08:43:03;;;;;;;2.35;1.20;;;16.50;99.90;;;;;;5046078;28;20052;-60
2022/07/27 08:45:29;;;;;;;1.38;0.68;;;16.70;99.90;;;;;;5046534;28;20055;-60
2022/07/27 08:47:55;;;;;;;7.65;1.00;;;16.80;99.90;;;;;;5046852;28;20049;-60
2022/07/27 08:50:22;;;;;;;2.17;1.10;;;17.00;99.90;;;;;;5046416;28;20037;-60
2022/07/27 08:52:59;;;;;;;4.57;1.10;;;17.10;99.90;;;;;;5045824;28;20049;-60
2022/07/27 08:55:27;;;;;;;3.08;0.88;;;17.20;99.90;;;;;;5046606;28;20041;-60
2022/07/27 08:57:52;;;;;;;3.38;0.70;;;17.30;99.90;;;;;;5046114;28;20087;-60
2022/07/27 09:00:18;;;;;;;2.00;0.60;;;17.30;99.90;;;;;;5045871;28;20573;-60
2022/07/27 09:02:45;;;;;;;4.35;1.10;;;17.30;99.90;;;;;;5046527;28;20059;-60
2022/07/27 09:05:11;;;;;;;5.85;0.70;;;17.40;99.90;;;;;;5046566;28;20040;-60
2022/07/27 09:07:36;;;;;;;4.32;0.93;;;17.50;99.90;;;;;;5045466;28;20041;-60
2022/07/27 09:10:04;;;;;;;2.90;0.82;;;17.60;99.90;;;;;;5046102;28;20113;-60
2022/07/27 09:12:31;;;;;;;8.10;1.45;;;17.70;99.90;;;;;;5046361;28;20056;-60
2022/07/27 09:15:13;;;;;;;2.78;1.30;;;17.80;99.90;;;;;;5046204;28;20068;-60
2022/07/27 09:17:43;;;;;;;3.10;0.70;;;17.90;99.90;;;;;;5046386;28;20301;-61
2022/07/27 09:20:15;;;;;;;1.50;0.82;;;18.00;99.90;;;;;;5045380;28;20080;-60
2022/07/27 09:22:51;;;;;;;5.82;1.05;;;18.00;99.90;;;;;;5046469;28;20048;-60
2022/07/27 09:25:24;;;;;;;3.35;0.98;;;18.10;99.90;;;;;;5046303;28;20049;-59
2022/07/27 09:27:54;;;;;;;3.70;1.00;;;18.20;99.90;;;;;;5045317;28;20052;-60
2022/07/27 09:30:20;;;;;;;6.70;0.88;;;18.10;99.90;;;;;;5046125;28;20049;-60
2022/07/27 09:32:53;;;;;;;5.47;1.00;;;18.20;99.90;;;;;;5045574;28;20127;-60
2022/07/27 09:35:32;;;;;;;2.33;0.50;;;18.20;99.90;;;;;;5045398;28;21233;-60
2022/07/27 09:38:19;;;;;;;5.30;0.95;;;18.30;99.90;;;;;;5046295;28;20044;-60
2022/07/27 09:40:46;;;;;;;1.75;0.82;;;18.40;99.90;;;;;;5045348;28;20044;-60
2022/07/27 09:43:12;;;;;;;2.47;0.68;;;18.50;99.90;;;;;;5046105;28;20098;-60
2022/07/27 09:45:42;;;;;;;2.55;1.15;;;18.50;99.90;;;;;;5045844;28;20041;-60
2022/07/27 09:48:12;;;;;;;5.72;0.95;;;18.60;99.90;;;;;;5045387;28;20195;-60
2022/07/27 09:50:41;;;;;;;3.92;0.65;;;18.60;99.90;;;;;;5045853;28;20488;-60
2022/07/27 09:53:19;;;;;;;1.95;1.08;;;18.70;99.90;;;;;;5045770;28;20041;-60
2022/07/27 09:55:55;;;;;;;3.00;0.70;;;18.80;99.90;;;;;;5045117;28;20128;-60
2022/07/27 09:58:20;;;;;;;2.15;0.70;;;18.80;99.90;;;;;;5027767;28;20060;-60
2022/07/27 10:00:56;;;;;;;5.65;0.93;;;19.00;99.90;;;;;;5045836;28;20049;-60
2022/07/27 10:03:22;;;;;;;2.58;0.80;;;19.10;99.90;;;;;;5045242;28;20053;-60
2022/07/27 10:05:47;;;;;;;8.15;1.05;;;19.10;99.90;;;;;;5045562;28;20056;-60
2022/07/27 10:08:13;;;;;;;3.80;1.05;;;18.90;99.90;;;;;;5048795;28;20049;-60
2022/07/27 10:10:39;;;;;;;2.95;0.82;;;18.70;99.90;;;;;;5048755;28;20041;-60
2022/07/27 10:13:04;;;;;;;1.42;0.57;;;18.60;99.90;;;;;;5049223;28;20048;-60
2022/07/27 10:15:30;;;;;;;0.82;0.43;;;18.50;99.90;;;;;;5049284;28;20037;-60
2022/07/27 10:18:06;;;;;;;3.35;0.80;;;18.50;99.90;;;;;;5048743;28;20063;-60
2022/07/27 10:20:35;;;;;;;2.85;0.68;;;18.70;99.90;;;;;;5049234;28;20069;-60
2022/07/27 10:23:01;;;;;;;2.45;0.80;;;18.80;99.90;;;;;;5048328;28;20052;-60
2022/07/27 10:25:29;;;;;;;4.47;0.73;;;18.80;99.90;;;;;;5049527;28;20041;-60
2022/07/27 10:28:28;;;;;;;1.80;0.93;;;18.80;99.90;;;;;;5048871;28;20041;-60
2022/07/27 10:31:16;;;;;;;1.50;0.60;;;18.70;99.90;;;;;;5036136;28;20049;-60
2022/07/27 10:33:44;;;;;;;0.73;0.40;;;18.90;99.90;;;;;;5048999;28;20045;-60
2022/07/27 10:36:15;;;;;;;1.48;0.57;;;19.10;99.90;;;;;;5049036;28;20048;-60
2022/07/27 10:38:54;;;;;;;2.38;0.93;;;19.20;99.90;;;;;;5048185;28;20041;-60
2022/07/27 10:41:26;;;;;;;3.30;0.60;;;19.40;99.90;;;;;;5048774;28;20059;-60
2022/07/27 10:44:10;;;;;;;;;;;19.40;99.90;;;;;;5049035;28;20041;-61
2022/07/27 10:46:41;;;;;;;1.63;0.47;;;19.30;99.90;;;;;;5048541;28;19982;-61
2022/07/27 10:49:18;;;;;;;3.88;1.20;;;19.50;99.90;;;;;;5048187;28;20789;-60
2022/07/27 10:51:43;;;;;;;0.93;0.43;;;19.60;99.90;;;;;;5047984;28;20053;-60
2022/07/27 10:54:22;;;;;;;2.58;0.70;;;19.70;99.90;;;;;;5047973;28;20041;-60
2022/07/27 10:56:49;;;;;;;5.53;0.50;;;19.90;99.90;;;;;;5048682;28;20045;-60
2022/07/27 10:59:42;;;;;;;1.83;0.73;;;19.90;99.90;;;;;;5047283;28;20084;-60
2022/07/27 11:02:18;;;;;;;1.98;0.73;;;19.70;99.90;;;;;;5048171;28;20128;-60
2022/07/27 11:04:51;;;;;;;1.15;0.40;;;19.50;99.90;;;;;;5048376;28;20128;-60
2022/07/27 11:07:22;;;;;;;2.47;0.75;;;19.40;99.90;;;;;;5047417;28;20044;-60
2022/07/27 11:09:51;;;;;;;1.52;0.40;;;19.40;99.90;;;;;;5048118;28;20098;-60
2022/07/27 11:12:18;;;;;;;1.45;0.70;;;19.60;99.90;;;;;;5047345;28;20041;-60
2022/07/27 11:14:46;;;;;;;3.70;1.20;;;19.50;99.90;;;;;;5048095;28;20551;-60
2022/07/27 11:17:13;;;;;;;2.58;0.68;;;19.40;99.90;;;;;;5048047;28;20072;-60
2022/07/27 11:19:38;;;;;;;5.10;0.93;;;19.30;99.90;;;;;;5047592;28;20041;-60
2022/07/27 11:22:04;;;;;;;4.18;0.80;;;19.40;99.90;;;;;;5047775;28;20048;-60
2022/07/27 11:24:31;;;;;;;1.45;0.50;;;19.50;99.90;;;;;;5048112;28;20048;-61
2022/07/27 11:26:57;;;;;;;1.52;0.50;;;19.40;99.90;;;;;;5047557;28;20458;-61
2022/07/27 11:29:24;;;;;;;3.33;0.60;;;19.40;99.90;;;;;;5048022;28;20078;-60
2022/07/27 11:31:53;;;;;;;1.80;0.70;;;19.40;99.90;;;;;;5047739;28;20072;-60
2022/07/27 11:34:29;;;;;;;2.47;0.80;;;19.50;99.90;;;;;;5047231;28;20040;-60
2022/07/27 11:36:57;;;;;;;2.45;0.75;;;19.50;99.90;;;;;;5048391;28;20045;-60
2022/07/27 11:39:27;;;;;;;4.15;0.63;;;19.40;99.90;;;;;;5047905;28;20049;-61
2022/07/27 11:41:57;;;;;;;1.08;0.50;;;19.40;99.90;;;;;;5047104;28;20130;-61
2022/07/27 11:44:23;;;;;;;2.60;0.70;;;19.30;99.90;;;;;;5047711;28;20053;-61
2022/07/27 11:46:51;;;;;;;2.85;0.70;;;19.30;99.90;;;;;;5047599;28;20045;-61
2022/07/27 11:49:25;;;;;;;1.35;0.52;;;19.40;99.90;;;;;;5047035;28;20121;-60
2022/07/27 11:51:52;;;;;;;5.40;0.98;;;19.60;99.90;;;;;;5047562;28;20047;-60
2022/07/27 11:54:25;;;;;;;1.83;0.40;;;19.90;99.90;;;;;;5047252;28;20064;-60
2022/07/27 11:57:05;;;;;;;5.78;1.25;;;20.20;99.90;;;;;;5047246;28;20040;-60
2022/07/27 11:59:35;;;;;;;2.10;0.52;;;20.30;99.90;;;;;;5047501;28;20052;-60
2022/07/27 12:02:03;;;;;;;3.92;1.13;;;20.10;99.90;;;;;;5046931;28;20431;-60
2022/07/27 12:04:37;;;;;;;3.78;0.77;;;20.30;99.90;;;;;;5047887;28;20056;-61
2022/07/27 12:07:09;;;;;;;2.22;0.73;;;20.50;99.90;;;;;;5047194;28;20139;-60
2022/07/27 12:09:39;;;;;;;;;;;20.60;99.90;;;;;;5045970;28;20052;-60
2022/07/27 12:12:19;;;;;;;1.98;0.50;;;20.50;99.90;;;;;;5047284;28;19920;-60
2022/07/27 12:14:50;;;;;;;1.33;0.50;;;20.20;99.90;;;;;;5047550;28;20080;-60
2022/07/27 12:17:17;;;;;;;3.58;1.13;;;20.00;99.90;;;;;;5046815;28;20044;-61
2022/07/27 12:19:57;;;;;;;3.65;1.10;;;19.80;99.90;;;;;;5054942;28;20045;-61
2022/07/27 12:22:31;;;;;;;1.40;0.60;;;19.80;99.90;;;;;;5056277;28;20053;-61
2022/07/27 12:24:58;;;;;;;6.65;0.98;;;19.70;99.90;;;;;;5055984;28;20045;-61
2022/07/27 12:27:25;;;;;;;1.95;0.60;;;19.70;99.90;;;;;;5047069;28;20087;-61
2022/07/27 12:30:12;;;;;;;6.80;0.95;;;19.60;99.90;;;;;;5044868;28;20559;-60
2022/07/27 12:32:42;;;;;;;2.90;0.70;;;19.70;99.90;;;;;;5047042;28;20053;-60
2022/07/27 12:35:20;;;;;;;3.38;0.80;;;19.60;99.90;;;;;;5046624;28;20496;-60
2022/07/27 12:37:47;;;;;;;2.50;0.82;;;19.70;99.90;;;;;;5046322;28;20049;-60
2022/07/27 12:40:17;;;;;;;3.03;0.70;;;19.70;99.90;;;;;;5046812;28;20057;-60
2022/07/27 12:42:43;;;;;;;3.33;1.00;;;19.60;99.90;;;;;;5046975;28;20044;-60
2022/07/27 12:45:14;;;;;;;4.32;0.85;;;19.50;99.90;;;;;;5045807;28;20124;-60
2022/07/27 12:47:40;;;;;;;3.15;1.25;;;19.50;99.90;;;;;;5046513;28;20661;-60
2022/07/27 12:50:13;;;;;;;1.85;0.70;;;19.50;99.90;;;;;;5046393;28;20048;-60
2022/07/27 12:52:50;;;;;;;2.53;0.65;;;19.60;99.90;;;;;;5046133;28;20076;-60
2022/07/27 12:55:16;;;;;;;3.10;0.90;;;19.70;99.90;;;;;;5046594;28;20496;-60